Arlington, Oregon
Current Conditions -  °F | °C
As of 5:53 AM on Saturday 22 Nov 2014 (Local Time) from KHRI Reporting Station
Few Clouds Few Clouds  
Wind Chill: 41°   Ceiling: Unl
Heat Index: 47°   Visibility: 10mi
Dew Point: 38°   Wind: 15mph
Humidity: 71%   Direction: 240°WSW
Pressure: 29.67"   Gusts: 29mph
Location:  45.72°N, 120.2°W
Report Text: KHRI 221353Z AUTO 24013G25KT 10SM FEW120 08/03 A2967 RMK AO2 PK WND 23027/1332 SLP048 T00830033
Loading
Personal Weather Stations






























Interactive Weather Map New forecast layout! Learn more

10-Day Weather Forecast

Advertisements
Track Severe Weather on mobile